createdAt,value
2017-08-09T12:13:29.698Z,6516.00
2017-08-09T12:13:30.275Z,6516.00
2017-08-09T12:13:30.880Z,6516.00
2017-08-09T12:13:31.477Z,6512.00
2017-08-09T12:13:32.074Z,6512.00
2017-08-09T12:13:32.677Z,6504.00
2017-08-09T12:13:33.270Z,6504.00
2017-08-09T12:14:27.754Z,6224.00
2017-08-09T12:14:28.330Z,6224.00
2017-08-09T12:14:28.931Z,6216.00
2017-08-09T12:14:29.533Z,6216.00
2017-08-09T12:14:30.135Z,6212.00
2017-08-09T12:14:30.738Z,6212.00
2017-08-09T12:14:31.331Z,6208.00
2017-08-09T12:14:31.930Z,6212.00
2017-08-09T12:15:25.490Z,6180.00
2017-08-09T12:15:26.089Z,6180.00
2017-08-09T12:15:26.686Z,6180.00
2017-08-09T12:15:27.286Z,6180.00
2017-08-09T12:15:27.889Z,6184.00
2017-08-09T12:15:28.489Z,6184.00
2017-08-09T12:15:29.090Z,6184.00
2017-08-09T12:15:29.687Z,6184.00
2017-08-09T12:16:23.774Z,6384.00
2017-08-09T12:16:24.363Z,6384.00
2017-08-09T12:16:24.954Z,6376.00
2017-08-09T12:16:25.554Z,6376.00
2017-08-09T12:16:26.161Z,6368.00
2017-08-09T12:16:26.759Z,6372.00
2017-08-09T12:16:27.359Z,6368.00
2017-08-09T12:17:20.897Z,6372.00
2017-08-09T12:17:21.497Z,6376.00
2017-08-09T12:17:22.097Z,6376.00
2017-08-09T12:17:22.698Z,6376.00
2017-08-09T12:17:23.293Z,6376.00
2017-08-09T12:17:23.895Z,6376.00
2017-08-09T12:17:24.496Z,6372.00
2017-08-09T12:17:25.096Z,6372.00
2017-08-09T12:18:18.685Z,6620.00
2017-08-09T12:18:19.253Z,6628.00
2017-08-09T12:18:19.851Z,6660.00
2017-08-09T12:18:20.453Z,6692.00
2017-08-09T12:18:21.054Z,6704.00
2017-08-09T12:18:21.655Z,6700.00
2017-08-09T12:18:22.255Z,6680.00
2017-08-09T12:18:22.851Z,6668.00
2017-08-09T12:19:16.408Z,6788.00
2017-08-09T12:19:17.005Z,6768.00
2017-08-09T12:19:17.603Z,6756.00
2017-08-09T12:19:18.203Z,6752.00
2017-08-09T12:19:18.805Z,6748.00
2017-08-09T12:19:19.407Z,6748.00
2017-08-09T12:19:20.005Z,6748.00
2017-08-09T12:19:20.608Z,6744.00
2017-08-09T12:20:14.168Z,7396.00
2017-08-09T12:20:14.769Z,7428.00
2017-08-09T12:20:15.385Z,7488.00
2017-08-09T12:20:15.953Z,7556.00
2017-08-09T12:20:16.556Z,7604.00
2017-08-09T12:20:17.153Z,7624.00
2017-08-09T12:20:17.752Z,7660.00
2017-08-09T12:20:18.353Z,7692.00
2017-08-09T12:21:12.839Z,8816.00
2017-08-09T12:21:13.435Z,8828.00
2017-08-09T12:21:14.115Z,8840.00
2017-08-09T12:21:14.633Z,8844.00
2017-08-09T12:21:15.233Z,8852.00
2017-08-09T12:21:15.834Z,8860.00
2017-08-09T12:21:16.437Z,8868.00
2017-08-09T12:21:17.036Z,8876.00
2017-08-09T12:22:10.491Z,9104.00
2017-08-09T12:22:11.087Z,9100.00
2017-08-09T12:22:11.693Z,9096.00
2017-08-09T12:22:12.289Z,9088.00
2017-08-09T12:22:12.889Z,9088.00
2017-08-09T12:22:13.486Z,9084.00
2017-08-09T12:22:14.082Z,9076.00
2017-08-09T12:22:14.689Z,9068.00
2017-08-09T12:23:08.257Z,8408.00
2017-08-09T12:23:08.840Z,8380.00
2017-08-09T12:23:09.437Z,8360.00
2017-08-09T12:23:10.040Z,8348.00
2017-08-09T12:23:10.637Z,8348.00
2017-08-09T12:23:11.240Z,8336.00
2017-08-09T12:23:11.844Z,8324.00
2017-08-09T12:23:12.444Z,8316.00
2017-08-09T12:24:06.034Z,6940.00
2017-08-09T12:24:06.595Z,6932.00
2017-08-09T12:24:07.198Z,6920.00
2017-08-09T12:24:07.791Z,6912.00
2017-08-09T12:24:08.394Z,6908.00
2017-08-09T12:24:08.997Z,6896.00
2017-08-09T12:24:09.597Z,6892.00
2017-08-09T12:24:10.335Z,6880.00
2017-08-09T12:25:03.767Z,6388.00
2017-08-09T12:25:04.351Z,6388.00
2017-08-09T12:25:04.951Z,6384.00
2017-08-09T12:25:05.551Z,6388.00
2017-08-09T12:25:06.151Z,6384.00
2017-08-09T12:25:06.749Z,6388.00
2017-08-09T12:25:07.348Z,6384.00
2017-08-09T12:25:07.950Z,6384.00
2017-08-09T12:26:02.428Z,6524.00
2017-08-09T12:26:03.027Z,6516.00
2017-08-09T12:26:04.493Z,6520.00
2017-08-09T12:26:04.993Z,6520.00
2017-08-09T12:26:05.596Z,6520.00
2017-08-09T12:26:06.201Z,6524.00
2017-08-09T12:26:06.799Z,6524.00
2017-08-09T12:27:00.282Z,6376.00
2017-08-09T12:27:00.879Z,6368.00
2017-08-09T12:27:01.480Z,6352.00
2017-08-09T12:27:02.077Z,6300.00
2017-08-09T12:27:02.684Z,6284.00
2017-08-09T12:27:03.280Z,6280.00
2017-08-09T12:27:03.887Z,6276.00
2017-08-09T12:27:04.483Z,6272.00
2017-08-09T12:27:58.958Z,6056.00
2017-08-09T12:27:59.555Z,6060.00
2017-08-09T12:28:00.153Z,6056.00
2017-08-09T12:28:00.751Z,6064.00
2017-08-09T12:28:01.365Z,6060.00
2017-08-09T12:28:01.970Z,6056.00
2017-08-09T12:28:02.576Z,6056.00
2017-08-09T12:28:03.155Z,6052.00
2017-08-09T12:28:57.123Z,6672.00
2017-08-09T12:28:57.714Z,6696.00
2017-08-09T12:28:58.316Z,6700.00
2017-08-09T12:28:58.914Z,6740.00
2017-08-09T12:28:59.514Z,6812.00
2017-08-09T12:29:00.121Z,6796.00
2017-08-09T12:29:00.722Z,6788.00
2017-08-09T12:29:55.111Z,6940.00
2017-08-09T12:29:55.675Z,6940.00
2017-08-09T12:29:56.279Z,6940.00
2017-08-09T12:29:56.878Z,6944.00
2017-08-09T12:29:57.476Z,6952.00
2017-08-09T12:29:58.079Z,6952.00
2017-08-09T12:29:58.678Z,6952.00
2017-08-09T12:29:59.277Z,6960.00
2017-08-09T12:30:52.843Z,7232.00
2017-08-09T12:30:53.433Z,7236.00
2017-08-09T12:30:54.028Z,7236.00
2017-08-09T12:30:54.628Z,7232.00
2017-08-09T12:30:55.232Z,7268.00
2017-08-09T12:30:55.832Z,7060.00
2017-08-09T12:30:56.428Z,7036.00
2017-08-09T12:30:57.032Z,6728.00
2017-08-09T12:31:51.513Z,7308.00
2017-08-09T12:31:52.112Z,7308.00
2017-08-09T12:31:52.709Z,7312.00
2017-08-09T12:31:53.311Z,7312.00
2017-08-09T12:31:53.907Z,7356.00
2017-08-09T12:31:54.507Z,7404.00
2017-08-09T12:31:55.108Z,7436.00
2017-08-09T12:31:55.707Z,7428.00
2017-08-09T12:32:49.262Z,7388.00
2017-08-09T12:32:49.866Z,7388.00
2017-08-09T12:32:50.461Z,7392.00
2017-08-09T12:32:51.064Z,7392.00
2017-08-09T12:32:51.665Z,7396.00
2017-08-09T12:32:52.268Z,7396.00
2017-08-09T12:32:52.861Z,7392.00
2017-08-09T12:32:53.463Z,7400.00
2017-08-09T12:33:47.942Z,7412.00
2017-08-09T12:33:48.546Z,7408.00
2017-08-09T12:33:49.137Z,7396.00
2017-08-09T12:33:49.732Z,7380.00
2017-08-09T12:33:50.333Z,7372.00
2017-08-09T12:33:50.933Z,7372.00
2017-08-09T12:33:51.532Z,7376.00
2017-08-09T12:33:52.140Z,7376.00
2017-08-09T12:34:45.592Z,6936.00
2017-08-09T12:34:46.190Z,6932.00
2017-08-09T12:34:46.793Z,6932.00
2017-08-09T12:34:47.390Z,6936.00
2017-08-09T12:34:47.996Z,6928.00
2017-08-09T12:34:48.590Z,6928.00
2017-08-09T12:34:49.189Z,6932.00
2017-08-09T12:34:49.790Z,6932.00
2017-08-09T12:35:43.368Z,6868.00
2017-08-09T12:35:43.945Z,6872.00
2017-08-09T12:35:44.544Z,6872.00
2017-08-09T12:35:45.144Z,6868.00
2017-08-09T12:35:45.754Z,6868.00
2017-08-09T12:35:46.349Z,6868.00
2017-08-09T12:35:46.948Z,6868.00
2017-08-09T12:35:47.545Z,6864.00
2017-08-09T12:36:41.108Z,7520.00
2017-08-09T12:36:41.715Z,7524.00
2017-08-09T12:36:42.300Z,7524.00
2017-08-09T12:36:42.898Z,7524.00
2017-08-09T12:36:43.499Z,7528.00
2017-08-09T12:36:44.100Z,7536.00
2017-08-09T12:36:44.696Z,7536.00
2017-08-09T12:36:45.299Z,7536.00
2017-08-09T12:37:39.777Z,7256.00
2017-08-09T12:37:40.376Z,7292.00
2017-08-09T12:37:40.975Z,7424.00
2017-08-09T12:37:41.576Z,7516.00
2017-08-09T12:37:42.174Z,7508.00
2017-08-09T12:37:42.772Z,7504.00
2017-08-09T12:37:43.375Z,7516.00
2017-08-09T12:37:43.969Z,7504.00
2017-08-09T12:38:38.046Z,7460.00
2017-08-09T12:38:38.640Z,7456.00
2017-08-09T12:38:39.239Z,7460.00
2017-08-09T12:38:39.843Z,7460.00
2017-08-09T12:38:40.442Z,7460.00
2017-08-09T12:38:41.041Z,7464.00
2017-08-09T12:38:41.639Z,7460.00
2017-08-09T12:39:36.103Z,7412.00
2017-08-09T12:39:36.699Z,7408.00
2017-08-09T12:39:37.296Z,7408.00
2017-08-09T12:39:37.900Z,7408.00
2017-08-09T12:39:38.503Z,7408.00
2017-08-09T12:39:39.100Z,7420.00
2017-08-09T12:39:39.699Z,7448.00
2017-08-09T12:39:40.297Z,7456.00
2017-08-09T12:40:34.807Z,7072.00
2017-08-09T12:40:35.380Z,7068.00
2017-08-09T12:40:35.979Z,7060.00
2017-08-09T12:40:36.572Z,7060.00
2017-08-09T12:40:37.174Z,7052.00
2017-08-09T12:40:37.777Z,7052.00
2017-08-09T12:40:38.377Z,7044.00
2017-08-09T12:40:38.979Z,7040.00
2017-08-09T12:41:32.531Z,6488.00
2017-08-09T12:41:33.129Z,6492.00
2017-08-09T12:41:33.731Z,6496.00
2017-08-09T12:41:34.331Z,6500.00
2017-08-09T12:41:34.929Z,6500.00
2017-08-09T12:41:35.528Z,6448.00
2017-08-09T12:41:36.127Z,6368.00
2017-08-09T12:41:36.735Z,6312.00
2017-08-09T12:42:30.285Z,5492.00
2017-08-09T12:42:30.885Z,5484.00
2017-08-09T12:42:31.483Z,5480.00
2017-08-09T12:42:32.085Z,5476.00
2017-08-09T12:42:32.688Z,5472.00
2017-08-09T12:42:33.285Z,5464.00
2017-08-09T12:42:33.885Z,5460.00
2017-08-09T12:42:34.487Z,5456.00
2017-08-09T12:43:28.970Z,5100.00
2017-08-09T12:43:29.564Z,5092.00
2017-08-09T12:43:30.162Z,5088.00
2017-08-09T12:43:30.755Z,5088.00
2017-08-09T12:43:31.355Z,5084.00
2017-08-09T12:43:31.957Z,5076.00
2017-08-09T12:43:32.559Z,5072.00
2017-08-09T12:43:33.161Z,5072.00
2017-08-09T12:44:26.616Z,4796.00
2017-08-09T12:44:27.216Z,4796.00
2017-08-09T12:44:27.820Z,4788.00
2017-08-09T12:44:28.413Z,4792.00
2017-08-09T12:44:29.021Z,4788.00
2017-08-09T12:44:29.616Z,4784.00
2017-08-09T12:44:30.214Z,4780.00
2017-08-09T12:44:30.817Z,4780.00
2017-08-09T12:45:25.322Z,4652.00
2017-08-09T12:45:25.898Z,4648.00
2017-08-09T12:45:26.495Z,4648.00
2017-08-09T12:45:27.095Z,4648.00
2017-08-09T12:45:27.693Z,4664.00
2017-08-09T12:45:28.291Z,4676.00
2017-08-09T12:45:28.891Z,4680.00
2017-08-09T12:45:29.491Z,4688.00
2017-08-09T12:46:23.049Z,4720.00
2017-08-09T12:46:23.665Z,4728.00
2017-08-09T12:46:25.025Z,4732.00
2017-08-09T12:46:25.537Z,4752.00
2017-08-09T12:46:26.139Z,4768.00
2017-08-09T12:46:26.745Z,4832.00
2017-08-09T12:46:27.343Z,4896.00
2017-08-09T12:47:21.824Z,4968.00
2017-08-09T12:47:22.421Z,4972.00
2017-08-09T12:47:23.014Z,4980.00
2017-08-09T12:47:23.619Z,4996.00
2017-08-09T12:47:24.217Z,5024.00
2017-08-09T12:47:24.818Z,5080.00
2017-08-09T12:47:25.442Z,5168.00
2017-08-09T12:47:26.018Z,5240.00
2017-08-09T12:48:20.504Z,5756.00
2017-08-09T12:48:21.099Z,5752.00
2017-08-09T12:48:21.695Z,5756.00
2017-08-09T12:48:22.298Z,5752.00
2017-08-09T12:48:22.895Z,5756.00
2017-08-09T12:48:23.499Z,5752.00
2017-08-09T12:48:24.091Z,5756.00
2017-08-09T12:48:24.694Z,5752.00
2017-08-09T12:49:19.173Z,5940.00
2017-08-09T12:49:19.770Z,5940.00
2017-08-09T12:49:20.368Z,5936.00
2017-08-09T12:49:20.982Z,5944.00
2017-08-09T12:49:21.571Z,5944.00
2017-08-09T12:49:22.166Z,5948.00
2017-08-09T12:49:22.767Z,5952.00
2017-08-09T12:49:23.371Z,5956.00
2017-08-09T12:50:18.673Z,6228.00
2017-08-09T12:50:19.266Z,6228.00
2017-08-09T12:50:19.870Z,6236.00
2017-08-09T12:50:20.468Z,6236.00
2017-08-09T12:50:21.073Z,6236.00
2017-08-09T12:50:21.667Z,6232.00
2017-08-09T12:50:22.266Z,6240.00
2017-08-09T12:50:22.864Z,6240.00
2017-08-09T12:51:16.446Z,5892.00
2017-08-09T12:51:17.021Z,5892.00
2017-08-09T12:51:17.621Z,5896.00
2017-08-09T12:51:18.225Z,5904.00
2017-08-09T12:51:18.823Z,5912.00
2017-08-09T12:51:19.421Z,5924.00
2017-08-09T12:51:20.017Z,5944.00
2017-08-09T12:51:20.620Z,5976.00
2017-08-09T12:52:15.510Z,6444.00
2017-08-09T12:52:16.108Z,6452.00
2017-08-09T12:52:16.742Z,6488.00
2017-08-09T12:52:17.306Z,6500.00
2017-08-09T12:52:17.908Z,6508.00
2017-08-09T12:52:18.503Z,6484.00
2017-08-09T12:52:19.118Z,6472.00
2017-08-09T12:53:13.566Z,6316.00
2017-08-09T12:53:14.168Z,6312.00
2017-08-09T12:53:14.762Z,6348.00
2017-08-09T12:53:15.372Z,6424.00
2017-08-09T12:53:15.970Z,6480.00
2017-08-09T12:53:16.567Z,6484.00
2017-08-09T12:53:17.170Z,6464.00
2017-08-09T12:53:17.767Z,6468.00
2017-08-09T12:54:12.272Z,5584.00
2017-08-09T12:54:12.843Z,5584.00
2017-08-09T12:54:13.458Z,5584.00
2017-08-09T12:54:14.042Z,5580.00
2017-08-09T12:54:14.660Z,5576.00
2017-08-09T12:54:15.244Z,5576.00
2017-08-09T12:54:15.873Z,5572.00
2017-08-09T12:54:16.445Z,5572.00
2017-08-09T12:55:10.917Z,5300.00
2017-08-09T12:55:11.514Z,5292.00
2017-08-09T12:55:12.114Z,5292.00
2017-08-09T12:55:12.718Z,5292.00
2017-08-09T12:55:13.312Z,5288.00
2017-08-09T12:55:13.915Z,5288.00
2017-08-09T12:55:14.519Z,5284.00
2017-08-09T12:55:15.116Z,5284.00
2017-08-09T12:56:09.733Z,5640.00
2017-08-09T12:56:10.296Z,5636.00
2017-08-09T12:56:10.899Z,5636.00
2017-08-09T12:56:11.496Z,5604.00
2017-08-09T12:56:12.099Z,5560.00
2017-08-09T12:56:12.692Z,5496.00
2017-08-09T12:56:13.295Z,5448.00
2017-08-09T12:56:13.894Z,5416.00
2017-08-09T12:57:07.454Z,5600.00
2017-08-09T12:57:08.055Z,5540.00
2017-08-09T12:57:08.657Z,5468.00
2017-08-09T12:57:09.251Z,5400.00
2017-08-09T12:57:09.855Z,5344.00
2017-08-09T12:57:10.449Z,5320.00
2017-08-09T12:57:11.048Z,5316.00
2017-08-09T12:57:11.650Z,5316.00
2017-08-09T12:58:05.223Z,5500.00
2017-08-09T12:58:05.802Z,5520.00
2017-08-09T12:58:06.416Z,5536.00
2017-08-09T12:58:07.009Z,5544.00
2017-08-09T12:58:07.607Z,5552.00
2017-08-09T12:58:08.209Z,5556.00
2017-08-09T12:58:08.820Z,5548.00
2017-08-09T12:58:09.406Z,5536.00
2017-08-09T12:59:03.477Z,6228.00
2017-08-09T12:59:04.072Z,6252.00
2017-08-09T12:59:04.670Z,6288.00
2017-08-09T12:59:05.272Z,6328.00
2017-08-09T12:59:05.880Z,6368.00
2017-08-09T12:59:06.475Z,6392.00
2017-08-09T12:59:07.071Z,6416.00
2017-08-09T13:00:03.891Z,7116.00
2017-08-09T13:00:04.482Z,7116.00
2017-08-09T13:00:05.088Z,7124.00
2017-08-09T13:00:05.684Z,7156.00
2017-08-09T13:00:06.288Z,7204.00
2017-08-09T13:00:06.888Z,7268.00
2017-08-09T13:01:24.005Z,7340.00
2017-08-09T13:01:24.568Z,7336.00
2017-08-09T13:01:25.171Z,7332.00
2017-08-09T13:02:26.123Z,7528.00
2017-08-09T13:02:26.719Z,7536.00
2017-08-09T13:02:27.318Z,7536.00
2017-08-09T13:02:27.916Z,7544.00
2017-08-09T13:02:28.516Z,7548.00
2017-08-09T13:02:29.123Z,7548.00
2017-08-09T13:02:29.722Z,7548.00
2017-08-09T13:02:30.322Z,7556.00
2017-08-09T13:02:30.923Z,7560.00
2017-08-09T13:02:31.516Z,7572.00
2017-08-09T13:02:32.128Z,7676.00
2017-08-09T13:02:32.738Z,7648.00
2017-08-09T13:03:38.218Z,7236.00
2017-08-09T13:03:38.812Z,7228.00
2017-08-09T13:03:39.409Z,7224.00
2017-08-09T13:03:40.020Z,7224.00
2017-08-09T13:03:40.616Z,7224.00
2017-08-09T13:03:41.212Z,7228.00
2017-08-09T13:04:54.706Z,7064.00
2017-08-09T13:04:55.305Z,7052.00
2017-08-09T13:04:55.912Z,7048.00
2017-08-09T13:04:56.516Z,7044.00
2017-08-09T13:04:57.111Z,7036.00
2017-08-09T13:04:57.706Z,7024.00
2017-08-09T13:04:58.300Z,7004.00
2017-08-09T13:04:58.902Z,6944.00
2017-08-09T13:05:52.463Z,6320.00
2017-08-09T13:05:53.056Z,6344.00
2017-08-09T13:05:53.666Z,6368.00
2017-08-09T13:05:54.260Z,6408.00
2017-08-09T13:05:54.856Z,6456.00
2017-08-09T13:05:55.456Z,6468.00
2017-08-09T13:05:56.075Z,6464.00
2017-08-09T13:05:56.660Z,6440.00
2017-08-09T13:06:50.253Z,5800.00
2017-08-09T13:06:50.815Z,5784.00
2017-08-09T13:06:51.418Z,5756.00
2017-08-09T13:06:52.015Z,5724.00
2017-08-09T13:06:52.610Z,5676.00
2017-08-09T13:06:53.211Z,5632.00
2017-08-09T13:06:53.815Z,5620.00
2017-08-09T13:06:54.411Z,5616.00
2017-08-09T13:07:47.988Z,6096.00
2017-08-09T13:07:48.570Z,6064.00
2017-08-09T13:07:49.173Z,6044.00
2017-08-09T13:07:49.795Z,6036.00
2017-08-09T13:07:50.368Z,6052.00
2017-08-09T13:07:50.968Z,6072.00
2017-08-09T13:07:51.571Z,6076.00
2017-08-09T13:07:52.177Z,6056.00
2017-08-09T13:08:46.648Z,6132.00
2017-08-09T13:08:47.249Z,6128.00
2017-08-09T13:08:47.845Z,6132.00
2017-08-09T13:08:48.445Z,6128.00
2017-08-09T13:08:49.046Z,6128.00
2017-08-09T13:08:49.638Z,6124.00
2017-08-09T13:08:50.240Z,6128.00
2017-08-09T13:08:50.855Z,6128.00
2017-08-09T13:09:45.330Z,6060.00
2017-08-09T13:09:45.922Z,6060.00
2017-08-09T13:09:46.524Z,6060.00
2017-08-09T13:09:47.125Z,6056.00
2017-08-09T13:09:47.717Z,6052.00
2017-08-09T13:09:48.314Z,6052.00
2017-08-09T13:09:48.913Z,6052.00
2017-08-09T13:09:49.517Z,6064.00
2017-08-09T13:10:43.074Z,5964.00
2017-08-09T13:10:43.673Z,5960.00
2017-08-09T13:10:44.280Z,5956.00
2017-08-09T13:10:44.870Z,5956.00
2017-08-09T13:10:45.472Z,5956.00
2017-08-09T13:10:46.078Z,5956.00
2017-08-09T13:10:46.675Z,5948.00
2017-08-09T13:10:47.273Z,5948.00
2017-08-09T13:11:41.771Z,5792.00
2017-08-09T13:11:42.357Z,5792.00
2017-08-09T13:11:42.958Z,5784.00
2017-08-09T13:11:43.542Z,5788.00
2017-08-09T13:11:44.151Z,5796.00
2017-08-09T13:11:44.751Z,5792.00
2017-08-09T13:11:45.346Z,5796.00
2017-08-09T13:11:45.948Z,5796.00
2017-08-09T13:12:40.162Z,4912.00
2017-08-09T13:12:40.726Z,4908.00
2017-08-09T13:12:41.235Z,4904.00
2017-08-09T13:12:41.836Z,4904.00
2017-08-09T13:12:42.434Z,4904.00
2017-08-09T13:12:43.052Z,4900.00
2017-08-09T13:12:43.638Z,4896.00
2017-08-09T13:13:37.156Z,5196.00
2017-08-09T13:13:37.757Z,5212.00
2017-08-09T13:13:38.389Z,5228.00
2017-08-09T13:13:38.974Z,5248.00
2017-08-09T13:13:39.570Z,5268.00
2017-08-09T13:13:40.157Z,5280.00
2017-08-09T13:13:40.776Z,5304.00
2017-08-09T13:13:41.375Z,5316.00
2017-08-09T13:14:35.324Z,5244.00
2017-08-09T13:14:35.919Z,5244.00
2017-08-09T13:14:36.520Z,5240.00
2017-08-09T13:14:37.120Z,5236.00
2017-08-09T13:14:37.718Z,5236.00
2017-08-09T13:14:38.320Z,5232.00
2017-08-09T13:14:38.915Z,5224.00
2017-08-09T13:15:33.382Z,4220.00
2017-08-09T13:15:33.975Z,4216.00
2017-08-09T13:15:34.578Z,4212.00
2017-08-09T13:15:35.179Z,4208.00
2017-08-09T13:15:35.799Z,4208.00
2017-08-09T13:15:36.381Z,4208.00
2017-08-09T13:15:36.975Z,4208.00
2017-08-09T13:15:37.583Z,4208.00
2017-08-09T13:16:32.059Z,4148.00
2017-08-09T13:16:32.656Z,4140.00
2017-08-09T13:16:33.251Z,4136.00
2017-08-09T13:16:33.850Z,4128.00
2017-08-09T13:16:34.460Z,4124.00
2017-08-09T13:16:35.053Z,4116.00
2017-08-09T13:16:35.656Z,4112.00
2017-08-09T13:16:36.255Z,4104.00
2017-08-09T13:17:30.760Z,3956.00
2017-08-09T13:17:31.332Z,3952.00
2017-08-09T13:17:31.930Z,3956.00
2017-08-09T13:17:32.528Z,3952.00
2017-08-09T13:17:33.128Z,3952.00
2017-08-09T13:17:33.730Z,3948.00
2017-08-09T13:17:34.325Z,3952.00
2017-08-09T13:17:34.932Z,3948.00
2017-08-09T13:18:29.408Z,4100.00
2017-08-09T13:18:30.005Z,4080.00
2017-08-09T13:18:30.608Z,4060.00
2017-08-09T13:18:31.207Z,4052.00
2017-08-09T13:18:31.803Z,4040.00
2017-08-09T13:18:32.400Z,4040.00
2017-08-09T13:18:33.005Z,4040.00
2017-08-09T13:18:33.601Z,4040.00
2017-08-09T13:19:27.294Z,4756.00
2017-08-09T13:19:27.889Z,4760.00
2017-08-09T13:19:28.485Z,4760.00
2017-08-09T13:19:29.074Z,4768.00
2017-08-09T13:19:29.683Z,4768.00
2017-08-09T13:19:30.269Z,4772.00
2017-08-09T13:19:30.875Z,4772.00
2017-08-09T13:19:31.444Z,4780.00
2017-08-09T13:20:25.839Z,4924.00
2017-08-09T13:20:26.434Z,4932.00
2017-08-09T13:20:27.035Z,4928.00
2017-08-09T13:20:27.637Z,4928.00
2017-08-09T13:20:28.236Z,4928.00
2017-08-09T13:20:28.850Z,4932.00
2017-08-09T13:20:29.433Z,4936.00
2017-08-09T13:20:30.042Z,4936.00
2017-08-09T13:21:23.490Z,4564.00
2017-08-09T13:21:24.094Z,4624.00
2017-08-09T13:21:24.691Z,4672.00
2017-08-09T13:21:25.285Z,4712.00
2017-08-09T13:21:25.884Z,4752.00
2017-08-09T13:21:26.488Z,4776.00
2017-08-09T13:21:27.089Z,4768.00
2017-08-09T13:21:27.696Z,4720.00
2017-08-09T13:22:21.271Z,5092.00
2017-08-09T13:22:21.840Z,5096.00
2017-08-09T13:22:22.447Z,5096.00
2017-08-09T13:22:23.046Z,5092.00
2017-08-09T13:22:23.644Z,5084.00
2017-08-09T13:22:24.245Z,5088.00
2017-08-09T13:22:24.841Z,5088.00
2017-08-09T13:22:25.439Z,5084.00
2017-08-09T13:23:19.916Z,5012.00
2017-08-09T13:23:20.516Z,5012.00
2017-08-09T13:23:21.111Z,5008.00
2017-08-09T13:23:21.711Z,5004.00
2017-08-09T13:23:22.326Z,5000.00
2017-08-09T13:23:22.917Z,5000.00
2017-08-09T13:23:23.521Z,4992.00
2017-08-09T13:23:24.116Z,4992.00
2017-08-09T13:24:18.595Z,4788.00
2017-08-09T13:24:19.194Z,4780.00
2017-08-09T13:24:19.791Z,4780.00
2017-08-09T13:24:20.391Z,4784.00
2017-08-09T13:24:20.994Z,4780.00
2017-08-09T13:24:21.588Z,4780.00
2017-08-09T13:24:22.189Z,4772.00
2017-08-09T13:24:22.790Z,4776.00
2017-08-09T13:25:17.273Z,4704.00
2017-08-09T13:25:17.866Z,4700.00
2017-08-09T13:25:18.465Z,4696.00
2017-08-09T13:25:19.062Z,4696.00
2017-08-09T13:25:19.668Z,4696.00
2017-08-09T13:25:20.262Z,4700.00
2017-08-09T13:25:20.866Z,4700.00
2017-08-09T13:25:21.464Z,4700.00
2017-08-09T13:26:15.024Z,4728.00
2017-08-09T13:26:15.618Z,4728.00
2017-08-09T13:26:16.230Z,4732.00
2017-08-09T13:26:16.824Z,4728.00
2017-08-09T13:26:17.426Z,4728.00
2017-08-09T13:26:18.024Z,4736.00
2017-08-09T13:26:18.624Z,4732.00
2017-08-09T13:26:19.221Z,4728.00
2017-08-09T13:27:12.779Z,4888.00
2017-08-09T13:27:13.378Z,4884.00
2017-08-09T13:27:13.989Z,4884.00
2017-08-09T13:27:14.576Z,4884.00
2017-08-09T13:27:15.181Z,4884.00
2017-08-09T13:27:15.778Z,4876.00
2017-08-09T13:27:16.377Z,4848.00
2017-08-09T13:27:16.980Z,4820.00
2017-08-09T13:28:10.558Z,4836.00
2017-08-09T13:28:11.128Z,4836.00
2017-08-09T13:28:11.730Z,4840.00
2017-08-09T13:28:12.331Z,4840.00
2017-08-09T13:28:12.929Z,4840.00
2017-08-09T13:28:13.527Z,4840.00
2017-08-09T13:28:14.130Z,4840.00
2017-08-09T13:28:14.731Z,4840.00
2017-08-09T13:29:08.795Z,4840.00
2017-08-09T13:29:09.393Z,4840.00
2017-08-09T13:29:10.002Z,4832.00
2017-08-09T13:29:10.599Z,4844.00
2017-08-09T13:29:11.200Z,4848.00
2017-08-09T13:29:11.798Z,4828.00
2017-08-09T13:29:12.396Z,4808.00
2017-08-09T13:29:12.992Z,4788.00
2017-08-09T13:30:07.989Z,4684.00
2017-08-09T13:30:08.583Z,4688.00
2017-08-09T13:30:09.188Z,4680.00
2017-08-09T13:30:09.784Z,4680.00
2017-08-09T13:30:10.386Z,4676.00
2017-08-09T13:30:10.996Z,4672.00
2017-08-09T13:31:05.025Z,4480.00
2017-08-09T13:31:05.622Z,4476.00
2017-08-09T13:31:06.225Z,4488.00
2017-08-09T13:31:06.839Z,4520.00
2017-08-09T13:31:07.425Z,4544.00
2017-08-09T13:31:08.023Z,4552.00
2017-08-09T13:31:08.625Z,4652.00
2017-08-09T13:31:09.222Z,4640.00
2017-08-09T13:32:22.846Z,3884.00
2017-08-09T13:32:23.444Z,3880.00
2017-08-09T13:32:24.044Z,3880.00
2017-08-09T13:32:24.726Z,3876.00
2017-08-09T13:32:25.250Z,3880.00
2017-08-09T13:32:25.845Z,3876.00
2017-08-09T13:32:26.446Z,3872.00
2017-08-09T13:32:27.043Z,3876.00
2017-08-09T13:33:22.070Z,4744.00
2017-08-09T13:33:22.642Z,4748.00
2017-08-09T13:33:23.237Z,4748.00
2017-08-09T13:33:23.833Z,4752.00
2017-08-09T13:33:24.434Z,4752.00
2017-08-09T13:33:25.041Z,4752.00
2017-08-09T13:34:19.587Z,4984.00
2017-08-09T13:34:20.179Z,4992.00
2017-08-09T13:34:20.782Z,5000.00
2017-08-09T13:34:21.379Z,5004.00
2017-08-09T13:34:22.061Z,5008.00
2017-08-09T13:34:22.586Z,5016.00
2017-08-09T13:34:23.183Z,5020.00
2017-08-09T13:35:24.202Z,5616.00
2017-08-09T13:35:24.796Z,5624.00
2017-08-09T13:35:25.406Z,5628.00
2017-08-09T13:35:25.996Z,5636.00
2017-08-09T13:35:26.596Z,5644.00
2017-08-09T13:35:27.202Z,5644.00
2017-08-09T13:35:27.803Z,5652.00
2017-08-09T13:35:28.402Z,5664.00
2017-08-09T13:35:28.998Z,5668.00
2017-08-09T13:35:29.605Z,5676.00
2017-08-09T13:35:30.197Z,5684.00
2017-08-09T13:35:30.798Z,5688.00
2017-08-09T13:36:24.314Z,5328.00
2017-08-09T13:36:24.910Z,5328.00
2017-08-09T13:36:25.517Z,5332.00
2017-08-09T13:36:26.110Z,5340.00
2017-08-09T13:36:26.721Z,5344.00
2017-08-09T13:36:27.310Z,5336.00
2017-08-09T13:36:27.904Z,5332.00
2017-08-09T13:36:28.503Z,5336.00
2017-08-09T13:37:32.098Z,6512.00
2017-08-09T13:37:32.693Z,6520.00
2017-08-09T13:37:33.297Z,6528.00
2017-08-09T13:37:33.944Z,6540.00
2017-08-09T13:37:34.493Z,6544.00
2017-08-09T13:37:35.093Z,6552.00
2017-08-09T13:37:35.696Z,6560.00
2017-08-09T13:37:36.303Z,6568.00
2017-08-09T13:38:29.883Z,6784.00
2017-08-09T13:38:30.447Z,6792.00
2017-08-09T13:38:31.069Z,6788.00
2017-08-09T13:38:31.646Z,6792.00
2017-08-09T13:38:32.248Z,6796.00
2017-08-09T13:38:32.853Z,6800.00
2017-08-09T13:38:33.457Z,6796.00
2017-08-09T13:38:34.051Z,6800.00
2017-08-09T13:39:29.040Z,6168.00
2017-08-09T13:39:29.645Z,6180.00
2017-08-09T13:39:30.237Z,6200.00
2017-08-09T13:39:30.835Z,6208.00
2017-08-09T13:39:31.434Z,6208.00
2017-08-09T13:39:32.040Z,6216.00
2017-08-09T13:40:26.082Z,6796.00
2017-08-09T13:40:26.676Z,6796.00
2017-08-09T13:40:27.272Z,6788.00
2017-08-09T13:40:27.875Z,6784.00
2017-08-09T13:40:28.612Z,6788.00
2017-08-09T13:40:29.095Z,6780.00
2017-08-09T13:40:29.673Z,6768.00
2017-08-09T13:40:30.278Z,6768.00
2017-08-09T13:41:25.261Z,6588.00
2017-08-09T13:41:25.860Z,6584.00
2017-08-09T13:41:26.463Z,6580.00
2017-08-09T13:41:27.058Z,6576.00
2017-08-09T13:41:27.658Z,6572.00
2017-08-09T13:41:28.258Z,6572.00
2017-08-09T13:41:28.861Z,6568.00
2017-08-09T13:42:22.407Z,6536.00
2017-08-09T13:42:23.005Z,6536.00
2017-08-09T13:42:23.615Z,6536.00
2017-08-09T13:42:24.210Z,6536.00
2017-08-09T13:42:24.804Z,6536.00
2017-08-09T13:42:25.403Z,6540.00
2017-08-09T13:42:26.003Z,6532.00
2017-08-09T13:42:26.603Z,6536.00
2017-08-09T13:43:22.617Z,6536.00
2017-08-09T13:43:23.215Z,6532.00
2017-08-09T13:43:23.821Z,6528.00
2017-08-09T13:43:24.409Z,6532.00
2017-08-09T13:43:25.009Z,6532.00
2017-08-09T13:43:25.609Z,6532.00
2017-08-09T13:44:19.679Z,6340.00
2017-08-09T13:44:20.248Z,6336.00
2017-08-09T13:44:20.852Z,6336.00
2017-08-09T13:44:21.451Z,6336.00
2017-08-09T13:44:22.056Z,6336.00
2017-08-09T13:44:22.656Z,6332.00
2017-08-09T13:44:23.251Z,6328.00
2017-08-09T13:44:23.853Z,6332.00
2017-08-09T13:45:17.814Z,6224.00
2017-08-09T13:45:18.413Z,6228.00
2017-08-09T13:45:19.018Z,6224.00